Terminal Aerodrome Forecast
Issued by NWS

Home | Current Version | Previous Version | Text Only | Print | Product List | Glossary On
Versions: 1 2 3 4 5 6 7 8 9 10 11 12 13 14
000
FTUS46 KPDT 021720
TAFPSC
TAF
KPSC 021720Z 0218/0318 VRB05KT P6SM FEW150 SCT220
     FM022100 VRB06KT P6SM FEW150 SCT250
     FM031500 20005KT P6SM FEW120 BKN150 OVC180=

USA.gov is the U.S. government's official web portal to all federal, state and local government web resources and services.